createdAt,value
2023-04-30T00:00:22.154Z,11.53
2023-04-30T00:03:25.150Z,12.65
2023-04-30T00:06:28.529Z,20.52
2023-04-30T00:09:31.120Z,20.27
2023-04-30T00:12:33.639Z,18.58
2023-04-30T00:15:36.625Z,18.90
2023-04-30T00:18:39.624Z,18.25
2023-04-30T00:21:42.438Z,16.20
2023-04-30T00:24:44.893Z,15.50
2023-04-30T00:27:47.489Z,15.70
2023-04-30T00:30:49.893Z,15.73
2023-04-30T00:33:52.319Z,15.27
2023-04-30T00:36:54.852Z,15.13
2023-04-30T00:39:57.386Z,17.33
2023-04-30T00:42:59.997Z,16.80
2023-04-30T00:46:03.932Z,16.73
2023-04-30T00:49:06.726Z,19.17
2023-04-30T00:52:09.220Z,16.10
2023-04-30T00:55:13.176Z,15.18
2023-04-30T00:58:16.011Z,18.20
2023-04-30T01:01:18.793Z,17.90
2023-04-30T01:04:21.959Z,16.98
2023-04-30T01:07:28.361Z,17.33
2023-04-30T01:10:42.253Z,17.27
2023-04-30T01:13:58.473Z,17.05
2023-04-30T01:17:17.674Z,17.58
2023-04-30T01:20:20.675Z,17.27
2023-04-30T01:24:00.635Z,20.70
2023-04-30T01:27:09.976Z,19.35
2023-04-30T01:30:13.937Z,18.70
2023-04-30T01:33:16.419Z,18.07
2023-04-30T01:36:57.524Z,32.42
2023-04-30T01:40:24.205Z,20.20
2023-04-30T01:43:38.721Z,20.40
2023-04-30T01:46:46.792Z,20.25
2023-04-30T01:50:08.757Z,20.90
2023-04-30T01:53:17.077Z,19.13
2023-04-30T01:56:34.065Z,20.73
2023-04-30T01:59:39.707Z,21.77
2023-04-30T02:02:42.664Z,18.88
2023-04-30T02:05:45.262Z,21.33
2023-04-30T02:08:48.371Z,19.70
2023-04-30T02:11:51.341Z,21.17
2023-04-30T02:14:53.805Z,19.83
2023-04-30T02:17:56.374Z,21.45
2023-04-30T02:20:58.878Z,21.05
2023-04-30T02:24:01.667Z,19.50
2023-04-30T02:27:04.073Z,20.70
2023-04-30T02:30:07.148Z,20.52
2023-04-30T02:33:12.392Z,20.33
2023-04-30T02:36:14.843Z,20.73
2023-04-30T02:39:17.530Z,23.92
2023-04-30T02:42:20.260Z,20.48
2023-04-30T02:45:22.704Z,20.30
2023-04-30T02:48:25.350Z,24.45
2023-04-30T02:51:28.339Z,20.70
2023-04-30T02:54:30.854Z,21.30
2023-04-30T02:57:33.274Z,26.88
2023-04-30T03:00:35.777Z,19.33
2023-04-30T03:03:38.312Z,17.88
2023-04-30T03:06:40.920Z,18.87
2023-04-30T03:09:44.006Z,20.73
2023-04-30T03:12:46.650Z,17.77
2023-04-30T03:15:49.057Z,19.43
2023-04-30T03:18:51.647Z,18.67
2023-04-30T03:21:54.891Z,18.90
2023-04-30T03:24:57.324Z,22.73
2023-04-30T03:27:59.862Z,18.33
2023-04-30T03:31:05.440Z,18.17
2023-04-30T03:34:08.181Z,20.77
2023-04-30T03:37:10.702Z,18.97
2023-04-30T03:40:13.268Z,21.30
2023-04-30T03:43:15.832Z,19.10
2023-04-30T03:46:18.864Z,18.37
2023-04-30T03:49:21.922Z,19.95
2023-04-30T03:52:24.449Z,21.33
2023-04-30T03:55:27.075Z,19.80
2023-04-30T03:58:30.115Z,21.98
2023-04-30T04:01:32.835Z,20.48
2023-04-30T04:04:35.686Z,22.63
2023-04-30T04:07:38.146Z,19.80
2023-04-30T04:10:41.103Z,22.52
2023-04-30T04:13:44.697Z,18.70
2023-04-30T04:16:48.628Z,18.13
2023-04-30T04:19:51.076Z,20.08
2023-04-30T04:22:54.054Z,19.40
2023-04-30T04:25:57.601Z,20.10
2023-04-30T04:29:00.552Z,18.42
2023-04-30T04:32:04.677Z,24.33
2023-04-30T04:35:08.450Z,16.50
2023-04-30T04:38:10.865Z,21.30
2023-04-30T04:41:13.258Z,20.50
2023-04-30T04:44:16.043Z,20.48
2023-04-30T04:47:21.911Z,17.53
2023-04-30T04:50:24.674Z,18.58
2023-04-30T04:53:27.170Z,17.17
2023-04-30T04:56:29.581Z,15.18
2023-04-30T04:59:32.191Z,18.75
2023-04-30T05:02:34.711Z,17.80
2023-04-30T05:05:37.090Z,20.83
2023-04-30T05:08:39.545Z,15.10
2023-04-30T05:11:43.844Z,16.17
2023-04-30T05:14:47.683Z,13.60
2023-04-30T05:17:50.094Z,17.67
2023-04-30T05:20:52.498Z,16.88
2023-04-30T05:23:55.431Z,75.88
2023-04-30T05:26:58.013Z,19.88
2023-04-30T05:30:00.886Z,18.77
2023-04-30T05:33:03.758Z,13.90
2023-04-30T05:36:06.410Z,14.48
2023-04-30T05:39:09.451Z,12.90
2023-04-30T05:42:11.864Z,13.25
2023-04-30T05:45:17.202Z,12.43
2023-04-30T05:48:19.987Z,11.57
2023-04-30T05:51:22.491Z,8.98
2023-04-30T05:54:25.172Z,10.20
2023-04-30T05:57:27.597Z,11.00
2023-04-30T06:00:31.242Z,10.35
2023-04-30T06:03:33.737Z,7.50
2023-04-30T06:06:36.338Z,7.05
2023-04-30T06:09:38.841Z,8.53
2023-04-30T06:12:41.325Z,10.70
2023-04-30T06:15:43.734Z,8.77
2023-04-30T06:18:46.115Z,33.50
2023-04-30T06:21:48.702Z,9.43
2023-04-30T06:24:51.092Z,14.95
2023-04-30T06:27:54.176Z,7.47
2023-04-30T06:30:56.896Z,9.75
2023-04-30T06:33:59.703Z,11.13
2023-04-30T06:37:02.053Z,7.95
2023-04-30T06:40:06.229Z,7.93
2023-04-30T06:43:08.639Z,7.43
2023-04-30T06:46:11.177Z,26.60
2023-04-30T06:49:13.813Z,11.83
2023-04-30T06:52:16.217Z,13.90
2023-04-30T06:55:19.050Z,11.43
2023-04-30T06:58:21.510Z,12.73
2023-04-30T07:01:23.928Z,11.80
2023-04-30T07:04:27.212Z,9.40
2023-04-30T07:07:29.698Z,13.20
2023-04-30T07:10:32.259Z,10.03
2023-04-30T07:13:34.717Z,8.95
2023-04-30T07:16:37.179Z,9.63
2023-04-30T07:19:39.777Z,9.23
2023-04-30T07:22:46.513Z,8.48
2023-04-30T07:25:49.366Z,7.97
2023-04-30T07:28:51.930Z,9.90
2023-04-30T07:31:54.403Z,7.72
2023-04-30T07:34:57.155Z,14.23
2023-04-30T07:37:59.527Z,9.45
2023-04-30T07:41:02.231Z,9.07
2023-04-30T07:44:04.954Z,6.60
2023-04-30T07:47:07.688Z,8.57
2023-04-30T07:50:10.505Z,7.17
2023-04-30T07:53:13.010Z,8.43
2023-04-30T07:56:15.983Z,6.53
2023-04-30T07:59:18.789Z,6.22
2023-04-30T08:02:21.822Z,6.72
2023-04-30T08:05:24.543Z,7.28
2023-04-30T08:08:26.989Z,6.15
2023-04-30T08:11:29.698Z,7.37
2023-04-30T08:14:33.123Z,7.88
2023-04-30T08:17:36.018Z,5.57
2023-04-30T08:20:38.800Z,6.33
2023-04-30T08:23:41.312Z,7.32
2023-04-30T08:26:43.723Z,9.80
2023-04-30T08:29:46.247Z,6.20
2023-04-30T08:32:49.428Z,6.00
2023-04-30T08:35:51.988Z,6.95
2023-04-30T08:38:54.635Z,4.35
2023-04-30T08:41:57.876Z,3.70
2023-04-30T08:45:01.628Z,4.93
2023-04-30T08:48:05.428Z,10.90
2023-04-30T08:51:08.019Z,4.30
2023-04-30T08:54:13.038Z,4.07
2023-04-30T08:57:15.610Z,4.03
2023-04-30T09:00:18.347Z,7.25
2023-04-30T09:03:23.809Z,4.68
2023-04-30T09:06:27.272Z,4.32
2023-04-30T09:09:31.763Z,8.23
2023-04-30T09:12:35.290Z,8.83
2023-04-30T09:15:41.685Z,59.95
2023-04-30T09:18:44.318Z,11.40
2023-04-30T09:21:47.058Z,11.30
2023-04-30T09:24:51.028Z,4.50
2023-04-30T09:28:12.796Z,5.10
2023-04-30T09:31:22.176Z,22.17
2023-04-30T09:34:35.732Z,23.65
2023-04-30T09:37:38.702Z,15.55
2023-04-30T09:40:42.688Z,35.30
2023-04-30T09:43:45.987Z,6.20
2023-04-30T09:46:50.918Z,8.52
2023-04-30T09:49:53.725Z,8.27
2023-04-30T09:53:06.577Z,5.77
2023-04-30T09:56:12.118Z,9.50
2023-04-30T09:59:16.228Z,6.80
2023-04-30T10:02:20.251Z,5.38
2023-04-30T10:05:23.079Z,21.85
2023-04-30T10:08:31.841Z,8.52
2023-04-30T10:11:37.659Z,6.55
2023-04-30T10:14:45.716Z,12.97
2023-04-30T10:18:02.343Z,5.07
2023-04-30T10:21:12.607Z,15.95
2023-04-30T10:24:20.673Z,5.60
2023-04-30T10:27:23.293Z,4.05
2023-04-30T10:30:26.254Z,3.58
2023-04-30T10:33:41.898Z,3.40
2023-04-30T10:36:44.848Z,3.20
2023-04-30T10:39:47.445Z,44.70
2023-04-30T10:42:54.632Z,11.85
2023-04-30T10:45:58.720Z,3.63
2023-04-30T10:49:01.432Z,10.80
2023-04-30T10:52:05.048Z,9.90
2023-04-30T10:55:09.092Z,9.93
2023-04-30T10:58:29.973Z,2.60
2023-04-30T11:01:57.249Z,1.60
2023-04-30T11:05:11.598Z,5.07
2023-04-30T11:08:14.338Z,1.88
2023-04-30T11:11:22.991Z,2.72
2023-04-30T11:14:25.496Z,7.93
2023-04-30T11:17:28.258Z,2.00
2023-04-30T11:20:30.784Z,2.92
2023-04-30T11:27:05.591Z,2.03
2023-04-30T11:30:18.669Z,3.13
2023-04-30T11:33:22.893Z,2.80
2023-04-30T11:36:26.795Z,2.00
2023-04-30T11:39:32.486Z,5.10
2023-04-30T11:42:35.597Z,2.30
2023-04-30T11:45:39.307Z,2.72
2023-04-30T11:48:44.158Z,1.60
2023-04-30T11:51:50.777Z,13.80
2023-04-30T11:54:55.592Z,2.92
2023-04-30T11:57:59.929Z,1.20
2023-04-30T12:01:02.816Z,0.95
2023-04-30T12:04:06.320Z,1.40
2023-04-30T12:07:09.754Z,1.30
2023-04-30T12:10:12.711Z,6.57
2023-04-30T12:13:16.680Z,1.50
2023-04-30T12:16:20.002Z,1.50
2023-04-30T12:19:25.365Z,1.87
2023-04-30T12:22:28.738Z,1.50
2023-04-30T12:25:31.140Z,2.45
2023-04-30T12:28:34.954Z,1.60
2023-04-30T12:31:38.631Z,1.52
2023-04-30T12:34:42.008Z,1.42
2023-04-30T12:37:45.844Z,4.53
2023-04-30T12:40:51.354Z,1.40
2023-04-30T12:44:14.191Z,1.75
2023-04-30T12:47:16.910Z,6.45
2023-04-30T12:50:22.639Z,2.03
2023-04-30T12:53:25.339Z,12.02
2023-04-30T12:56:27.775Z,2.85
2023-04-30T12:59:31.652Z,1.90
2023-04-30T13:02:34.497Z,2.75
2023-04-30T13:05:37.070Z,2.83
2023-04-30T13:08:54.081Z,1.98
2023-04-30T13:12:01.220Z,1.45
2023-04-30T13:15:03.996Z,1.92
2023-04-30T13:18:09.369Z,1.60
2023-04-30T13:21:12.748Z,1.20
2023-04-30T13:24:16.077Z,2.55
2023-04-30T13:27:18.545Z,2.38
2023-04-30T13:30:21.037Z,2.60
2023-04-30T13:33:23.529Z,1.48
2023-04-30T13:36:25.867Z,1.42
2023-04-30T13:39:28.541Z,1.30
2023-04-30T13:42:31.929Z,2.30
2023-04-30T13:45:34.433Z,2.35
2023-04-30T13:48:36.848Z,1.88
2023-04-30T13:51:39.372Z,3.40
2023-04-30T13:54:42.086Z,6.55
2023-04-30T13:57:44.505Z,3.67
2023-04-30T14:00:47.092Z,4.07
2023-04-30T14:03:49.636Z,1.92
2023-04-30T14:06:52.875Z,2.47
2023-04-30T14:09:55.446Z,2.97
2023-04-30T14:12:58.196Z,2.40
2023-04-30T14:16:00.690Z,2.95
2023-04-30T14:19:03.239Z,1.63
2023-04-30T14:22:05.832Z,4.03
2023-04-30T14:25:09.554Z,2.80
2023-04-30T14:28:12.062Z,3.20
2023-04-30T14:31:14.771Z,2.80
2023-04-30T14:34:17.608Z,2.38
2023-04-30T14:37:20.447Z,1.98
2023-04-30T14:40:23.445Z,2.63
2023-04-30T14:43:25.951Z,2.90
2023-04-30T14:46:28.612Z,2.22
2023-04-30T14:49:31.396Z,2.65
2023-04-30T14:52:33.761Z,12.53
2023-04-30T14:55:36.231Z,4.22
2023-04-30T14:58:38.701Z,3.75
2023-04-30T15:01:42.279Z,3.20
2023-04-30T15:04:46.353Z,3.45
2023-04-30T15:07:48.755Z,3.17
2023-04-30T15:10:51.182Z,2.80
2023-04-30T15:13:55.159Z,4.13
2023-04-30T15:16:57.665Z,3.40
2023-04-30T15:20:02.303Z,6.50
2023-04-30T15:23:05.525Z,3.10
2023-04-30T15:26:08.367Z,6.05
2023-04-30T15:29:11.229Z,4.43
2023-04-30T15:32:14.002Z,5.90
2023-04-30T15:35:16.513Z,3.38
2023-04-30T15:38:19.185Z,3.78
2023-04-30T15:41:22.211Z,3.45
2023-04-30T15:44:24.633Z,3.10
2023-04-30T15:47:27.145Z,3.80
2023-04-30T15:50:31.008Z,2.20
2023-04-30T15:53:33.850Z,3.90
2023-04-30T15:56:36.614Z,2.88
2023-04-30T15:59:39.046Z,3.53
2023-04-30T16:02:41.615Z,4.00
2023-04-30T16:05:44.125Z,2.60
2023-04-30T16:08:47.001Z,3.90
2023-04-30T16:11:50.844Z,5.20
2023-04-30T16:14:53.696Z,4.05
2023-04-30T16:17:58.861Z,3.45
2023-04-30T16:21:01.648Z,4.85
2023-04-30T16:24:07.793Z,3.80
2023-04-30T16:27:10.394Z,4.50
2023-04-30T16:30:13.154Z,3.03
2023-04-30T16:33:16.354Z,3.43
2023-04-30T16:36:18.967Z,3.88
2023-04-30T16:39:21.347Z,2.92
2023-04-30T16:42:34.896Z,3.45
2023-04-30T16:45:37.556Z,3.97
2023-04-30T16:48:40.281Z,3.13
2023-04-30T16:51:42.657Z,5.63
2023-04-30T16:54:45.474Z,3.33
2023-04-30T16:57:47.986Z,5.68
2023-04-30T17:00:55.944Z,5.75
2023-04-30T17:03:58.572Z,3.33
2023-04-30T17:07:01.081Z,3.33
2023-04-30T17:10:04.710Z,2.33
2023-04-30T17:13:07.170Z,2.47
2023-04-30T17:16:09.753Z,2.80
2023-04-30T17:19:12.236Z,3.05
2023-04-30T17:22:19.425Z,5.15
2023-04-30T17:25:22.446Z,2.23
2023-04-30T17:28:26.082Z,3.22
2023-04-30T17:31:30.646Z,3.05
2023-04-30T17:34:33.458Z,41.23
2023-04-30T17:37:36.621Z,6.45
2023-04-30T17:40:39.187Z,4.50
2023-04-30T17:43:41.769Z,2.50
2023-04-30T17:46:45.557Z,4.53
2023-04-30T17:49:48.317Z,3.13
2023-04-30T17:52:51.384Z,2.92
2023-04-30T17:55:53.889Z,3.40
2023-04-30T17:58:56.601Z,5.95
2023-04-30T18:01:59.713Z,3.25
2023-04-30T18:05:02.593Z,3.90
2023-04-30T18:08:06.399Z,3.10
2023-04-30T18:11:09.517Z,3.15
2023-04-30T18:14:12.664Z,2.40
2023-04-30T18:17:15.348Z,3.20
2023-04-30T18:20:18.257Z,2.83
2023-04-30T18:23:22.152Z,2.53
2023-04-30T18:26:25.048Z,4.60
2023-04-30T18:29:27.750Z,3.20
2023-04-30T18:32:30.449Z,4.57
2023-04-30T18:35:34.208Z,4.47
2023-04-30T18:38:38.772Z,4.93
2023-04-30T18:41:41.280Z,3.90
2023-04-30T18:44:43.845Z,4.22
2023-04-30T18:47:46.436Z,3.42
2023-04-30T18:50:49.947Z,4.70
2023-04-30T18:53:53.046Z,3.08
2023-04-30T18:56:55.418Z,3.87
2023-04-30T18:59:58.215Z,4.15
2023-04-30T19:03:01.202Z,4.97
2023-04-30T19:06:04.773Z,2.73
2023-04-30T19:09:07.314Z,3.85
2023-04-30T19:12:10.308Z,4.10
2023-04-30T19:15:15.048Z,3.58
2023-04-30T19:18:18.847Z,6.57
2023-04-30T19:21:21.466Z,4.72
2023-04-30T19:24:25.249Z,3.92
2023-04-30T19:27:28.096Z,4.53
2023-04-30T19:30:32.387Z,4.57
2023-04-30T19:33:39.208Z,5.35
2023-04-30T19:36:43.864Z,6.10
2023-04-30T19:39:46.546Z,5.30
2023-04-30T19:42:49.074Z,7.45
2023-04-30T19:45:53.807Z,5.38
2023-04-30T19:48:56.487Z,5.93
2023-04-30T19:51:59.341Z,7.15
2023-04-30T19:55:02.332Z,5.93
2023-04-30T19:58:05.262Z,4.40
2023-04-30T20:01:08.880Z,4.70
2023-04-30T20:04:11.845Z,6.65
2023-04-30T20:07:14.619Z,5.93
2023-04-30T20:10:17.399Z,6.25
2023-04-30T20:13:21.064Z,3.70
2023-04-30T20:16:23.920Z,8.25
2023-04-30T20:19:26.672Z,4.63
2023-04-30T20:22:29.393Z,7.85
2023-04-30T20:25:31.849Z,3.85
2023-04-30T20:28:34.800Z,5.47
2023-04-30T20:31:37.825Z,3.75
2023-04-30T20:34:41.725Z,3.53
2023-04-30T20:37:44.292Z,5.77
2023-04-30T20:40:47.192Z,3.60
2023-04-30T20:43:52.091Z,3.40
2023-04-30T20:46:54.890Z,2.40
2023-04-30T20:49:57.787Z,3.25
2023-04-30T20:53:00.823Z,3.67
2023-04-30T20:56:03.714Z,4.43
2023-04-30T20:59:06.162Z,3.90
2023-04-30T21:02:10.328Z,12.15
2023-04-30T21:05:13.206Z,8.00
2023-04-30T21:08:15.577Z,6.10
2023-04-30T21:11:19.386Z,7.47
2023-04-30T21:14:21.999Z,8.63
2023-04-30T21:17:24.422Z,10.13
2023-04-30T21:20:27.202Z,7.78
2023-04-30T21:23:30.056Z,12.75
2023-04-30T21:26:32.767Z,12.50
2023-04-30T21:29:35.483Z,10.97
2023-04-30T21:32:38.298Z,6.28
2023-04-30T21:35:40.866Z,4.10
2023-04-30T21:38:43.281Z,4.00
2023-04-30T21:41:45.882Z,6.10
2023-04-30T21:44:48.580Z,7.30
2023-04-30T21:47:51.130Z,6.05
2023-04-30T21:50:53.532Z,4.15
2023-04-30T21:53:57.396Z,5.68
2023-04-30T21:57:01.148Z,5.03
2023-04-30T22:00:07.281Z,4.53
2023-04-30T22:03:11.706Z,4.25
2023-04-30T22:06:14.247Z,5.47
2023-04-30T22:09:16.923Z,3.87
2023-04-30T22:12:21.313Z,5.75
2023-04-30T22:15:26.025Z,4.15
2023-04-30T22:18:31.758Z,3.45
2023-04-30T22:21:34.402Z,7.32
2023-04-30T22:24:37.196Z,3.33
2023-04-30T22:27:39.550Z,4.38
2023-04-30T22:30:42.036Z,3.63
2023-04-30T22:33:44.838Z,5.43
2023-04-30T22:36:47.361Z,4.55
2023-04-30T22:39:49.749Z,3.27
2023-04-30T22:42:52.355Z,4.43
2023-04-30T22:45:55.215Z,5.30
2023-04-30T22:48:57.704Z,6.40
2023-04-30T22:52:00.795Z,5.05
2023-04-30T22:55:05.544Z,4.28
2023-04-30T22:58:07.957Z,3.08
2023-04-30T23:01:10.436Z,5.63
2023-04-30T23:04:13.747Z,4.22
2023-04-30T23:07:16.659Z,6.00
2023-04-30T23:10:19.178Z,6.00
2023-04-30T23:13:21.701Z,6.25
2023-04-30T23:16:24.167Z,4.40
2023-04-30T23:19:26.851Z,3.28
2023-04-30T23:22:29.321Z,2.88
2023-04-30T23:25:32.805Z,3.92
2023-04-30T23:28:36.928Z,3.05
2023-04-30T23:31:40.155Z,5.77
2023-04-30T23:34:42.600Z,3.28
2023-04-30T23:37:45.364Z,3.50
2023-04-30T23:40:48.138Z,5.93
2023-04-30T23:43:51.064Z,4.75
2023-04-30T23:46:55.680Z,3.72
2023-04-30T23:49:58.327Z,3.67
2023-04-30T23:53:00.812Z,6.70
2023-04-30T23:56:03.592Z,3.42
2023-04-30T23:59:06.020Z,2.80
